Aeroporto :
LOGIN :

Iscrizione | Disclaimer

   EN    FR    IT 

 










Sommario :    VFR   VFR Marginale   IFR   IFR Intensivo   IFR Molto Intensivo
Visibilità : 
Base nubi : 
>= 8 km
>= 3000ft
5 / 8 km
1000 / 3000 ft
1500m / 5 km
500 / 1000 ft
800 / 1500m
200 / 500 ft
< 800m
< 200 ft
Simboli :   Temporali  Nebbia  Neve Forte  Precipitazioni Forti  Vento > 20 kt
SIGMETs :   Varie  Temporali  Ghiacco  Turbolenza  Onda orograficha  Ceneri Vulcaniche






- Altitudine del aeroporto : 1202 ft
- Codice IATA : IGS


ETSI - Ingolstadt

ULTIMO METAR :
  • 200820Z 00000KT 3800 VCFG MIFG BKN043 M01/M02 Q1045 GRN GRN BECMG BLU

METARs OBSOLETI :
  • 200733Z 14001KT 1800 R25/1600N VCFG MIFG BKN042 M02/M03 Q1044 YLO YLO BECMG BLU
  • 200710Z 00000KT 0800 R25/1000D FZFG BKN043 M03/M03 Q1044 AMB BLU TEMPO RED
  • 200620Z 18003KT 0500 R25/0350N FZFG SCT050 M03/M03 Q1043 RED BLU TEMPO RED
  • 200614Z 17003KT 0500 R25/0300D FZFG SCT050 M03/M04 Q1043 RED BLU TEMPO RED

TAF AMD TAF ETSI
Valido dal 20 a 06 ore il 20 a 15 ore UTC


200613Z 2006/2015 07005KT 8000 NSW BKN035
TEMPO 2006/2011 07003KT 5000 BR BKN015
TEMPO 2006/2008 VRB02KT 0800 FZFG SCT001 SCT035
BECMG 2014/2015 07006KT 9999 NSW SCT035



MetMap, La meteo Aeronautica in un colpo d'occhio ! - Copyright ORBIFLY Dicembre 2007 - Disclaimer

ORBIFLY MET'MAP TEAM :

Programmazione e sviluppo : Alexandra Zaïnal
Concezione : Baudouin d'Aumeries
Aiuto per la programmazione : Marc-Olivier Méhu
Supporto tecnico e logistico : Manuel Goepfert
Aiuto per la traduzione : Arnaldo La Scala

Contatto : metmap@orbifly.com




FONTI E CREDITI :

   NOAA